This is the latest recevied weather packets stored in our database for station/object OM2WX-6. If no packets are shown the sender has not sent any weather packets the latest 10 day(s).
| Time | Temp. | Humidity | Pressure | Rain* | Wind** | Luminosity | Snow |
|---|---|---|---|---|---|---|---|
| 1777970985 | 22.22° C | 44% | 1003.7 hPa | 0 mm | - | - | - |
| 1777970685 | 22.22° C | 45% | 1003.5 hPa | 0 mm | - | - | - |
| 1777970385 | 21.67° C | 45% | 1003.6 hPa | 0 mm | - | - | - |
| 1777970085 | 21.67° C | 44% | 1003.6 hPa | 0 mm | - | - | - |
| 1777969785 | 21.67° C | 44% | 1003.6 hPa | 0 mm | - | - | - |
| 1777969485 | 21.67° C | 44% | 1003.6 hPa | 0 mm | - | - | - |
| 1777969185 | 21.67° C | 44% | 1003.7 hPa | 0 mm | - | - | - |
| 1777968885 | 22.22° C | 43% | 1003.7 hPa | 0 mm | - | - | - |
| 1777968586 | 22.22° C | 43% | 1003.4 hPa | 0 mm | - | - | - |
| 1777968285 | 22.22° C | 44% | 1003.6 hPa | 0 mm | - | - | - |
| 1777967985 | 22.22° C | 44% | 1003.4 hPa | 0 mm | - | - | - |
| 1777967685 | 22.22° C | 44% | 1003.5 hPa | 0 mm | - | - | - |
| 1777967385 | 21.67° C | 44% | 1003.7 hPa | 0 mm | - | - | - |
| 1777967086 | 21.67° C | 44% | 1003.9 hPa | 0 mm | - | - | - |
| 1777966785 | 21.67° C | 45% | 1003.6 hPa | 0 mm | - | - | - |
| 1777966485 | 21.11° C | 45% | 1003.8 hPa | 0 mm | - | - | - |
| 1777966185 | 21.11° C | 45% | 1003.8 hPa | 0 mm | - | - | - |
| 1777965886 | 20.56° C | 46% | 1003.9 hPa | 0 mm | - | - | - |
| 1777965586 | 20.56° C | 46% | 1003.6 hPa | 0 mm | - | - | - |
| 1777965285 | 20.56° C | 46% | 1003.5 hPa | 0 mm | - | - | - |
| 1777964986 | 20° C | 47% | 1003.8 hPa | 0 mm | - | - | - |
| 1777964686 | 20° C | 47% | 1003.4 hPa | 0 mm | - | - | - |
| 1777964386 | 19.44° C | 47% | 1004.2 hPa | 0 mm | - | - | - |
| 1777964086 | 19.44° C | 48% | 1004 hPa | 0 mm | - | - | - |
| 1777963785 | 18.89° C | 48% | 1004 hPa | 0 mm | - | - | - |
* Rain latest hour (hover to see other rain measurements)
** Current wind speed in m/s (hover to see current wind gust speed)